Time;durP1;ratioP1;P1;durP2;ratioP2;P2;SDS_P1;SDS_P2;PMS_P1;PMS_P2;Temp;Humidity;BMP_temperature;BMP_pressure;BME280_temperature;BME280_humidity;BME280_pressure;Samples;Min_cycle;Max_cycle;Signal;HPM_P1;HPM_P2
2022/02/28 00:01:51;;;;;;;14.80;7.70;;;;;;;1.65;59.89;100449.81;25199;1313;3030421;-73
2022/02/28 00:04:21;;;;;;;14.60;7.50;;;;;;;1.60;60.11;100446.23;25137;1314;3027528;-71
2022/02/28 00:06:51;;;;;;;11.90;6.00;;;;;;;1.61;60.09;100446.73;25124;1314;3027350;-70
2022/02/28 00:09:21;;;;;;;11.20;6.10;;;;;;;1.63;59.85;100449.84;25128;1313;3027390;-67
2022/02/28 00:11:56;;;;;;;11.10;5.80;;;;;;;1.65;60.08;100447.73;25162;1313;3049930;-73
2022/02/28 00:14:29;;;;;;;8.70;5.20;;;;;;;1.63;60.07;100447.25;25103;1314;3055955;-71
2022/02/28 00:17:07;;;;;;;10.40;5.30;;;;;;;1.61;60.43;100448.30;25110;1315;3052406;-71
2022/02/28 00:19:37;;;;;;;8.30;5.10;;;;;;;1.54;60.50;100448.00;25142;1313;3026875;-68
2022/02/28 00:22:09;;;;;;;7.50;4.30;;;;;;;1.55;60.46;100442.30;25110;1315;3028103;-67
2022/02/28 00:24:40;;;;;;;9.20;5.20;;;;;;;1.60;60.36;100444.68;25132;1315;3027347;-72
2022/02/28 00:27:15;;;;;;;13.30;4.80;;;;;;;1.57;60.73;100443.32;25194;1314;3053886;-71
2022/02/28 00:29:45;;;;;;;7.60;4.50;;;;;;;1.61;60.74;100443.45;25125;1313;3028492;-74
2022/02/28 00:32:23;;;;;;;7.70;4.00;;;;;;;1.69;60.38;100439.60;25170;1313;3051649;-67
2022/02/28 00:34:53;;;;;;;6.40;3.90;;;;;;;1.61;60.47;100438.62;25179;1315;3029186;-68
2022/02/28 00:37:23;;;;;;;8.70;4.00;;;;;;;1.63;60.44;100441.89;25153;1313;3027316;-71
2022/02/28 00:39:53;;;;;;;10.80;4.70;;;;;;;1.72;60.07;100441.46;25176;1313;3026057;-67
2022/02/28 00:42:22;;;;;;;8.60;4.20;;;;;;;1.74;60.00;100440.07;25192;1314;3026512;-70
2022/02/28 00:44:53;;;;;;;6.90;3.90;;;;;;;1.71;59.82;100440.45;25154;1315;3029464;-70
2022/02/28 00:47:26;;;;;;;8.20;3.90;;;;;;;1.73;60.20;100442.84;25143;1315;3053830;-69
2022/02/28 00:49:55;;;;;;;7.70;4.00;;;;;;;1.64;60.31;100452.25;25133;1315;3030213;-68
2022/02/28 00:52:25;;;;;;;7.40;4.00;;;;;;;1.71;60.15;100449.77;25184;1313;3027371;-70
2022/02/28 00:54:55;;;;;;;6.20;3.80;;;;;;;1.72;60.51;100444.41;25304;1313;3026406;-64
2022/02/28 01:03:55;;;;;;;5.70;3.10;;;;;;;1.71;58.96;100435.95;25071;1315;3052575;-71
2022/02/28 01:07:16;;;;;;;;;;;;;;;;;;;;;
2022/02/28 01:14:04;;;;;;;5.60;2.70;;;;;;;1.74;58.69;100439.05;25048;1317;3068534;-68
2022/02/28 01:16:42;;;;;;;4.40;3.20;;;;;;;1.75;58.90;100440.92;25149;1315;3026829;-71
2022/02/28 01:43:05;;;;;;;11.60;5.20;;;;;;;1.48;60.28;100444.60;25051;1312;3071144;-72
2022/02/28 01:45:36;;;;;;;13.10;6.00;;;;;;;1.44;60.56;100440.83;25229;1312;3026854;-73
2022/02/28 01:57:34;;;;;;;10.90;5.70;;;;;;;1.23;60.75;100437.37;24732;1336;3057171;-71
2022/02/28 02:00:26;;;;;;;14.40;6.20;;;;;;;1.20;60.74;100439.27;24758;1332;3049861;-72
2022/02/28 02:02:56;;;;;;;10.20;5.40;;;;;;;1.09;61.04;100439.86;24751;1329;3026430;-68
2022/02/28 02:05:27;;;;;;;8.10;4.60;;;;;;;1.07;60.96;100437.80;25073;1312;3028046;-68
2022/02/28 02:07:57;;;;;;;8.20;4.90;;;;;;;1.09;60.68;100440.36;25282;1312;3027003;-70
2022/02/28 02:10:27;;;;;;;9.60;4.90;;;;;;;1.09;60.79;100436.92;25185;1312;3028832;-71
2022/02/28 02:12:57;;;;;;;9.90;5.30;;;;;;;1.03;60.87;100439.21;25138;1315;3026593;-67
2022/02/28 02:15:27;;;;;;;11.30;5.90;;;;;;;0.90;61.29;100438.77;25151;1312;3026947;-68
2022/02/28 02:17:57;;;;;;;9.70;5.90;;;;;;;0.81;62.35;100443.12;25146;1312;3026378;-75
2022/02/28 02:20:28;;;;;;;12.20;6.30;;;;;;;0.86;62.12;100445.17;25135;1313;3026850;-72
2022/02/28 02:23:03;;;;;;;9.50;5.40;;;;;;;0.69;62.78;100445.42;25142;1312;3027036;-72
2022/02/28 02:25:34;;;;;;;8.50;4.70;;;;;;;0.76;62.70;100444.70;25197;1312;3051878;-71
2022/02/28 02:28:04;;;;;;;7.60;4.70;;;;;;;0.79;62.65;100444.00;25188;1312;3026241;-68
2022/02/28 02:31:06;;;;;;;9.10;5.30;;;;;;;0.77;62.98;100446.42;25133;1312;3026669;-68
2022/02/28 02:33:38;;;;;;;11.40;4.60;;;;;;;0.67;63.25;100447.83;25132;1315;3055522;-67
2022/02/28 02:36:08;;;;;;;13.10;4.80;;;;;;;0.53;63.79;100446.52;25155;1312;3027049;-67
2022/02/28 02:38:39;;;;;;;10.10;5.00;;;;;;;0.59;63.62;100445.45;25142;1312;3026601;-71
2022/02/28 02:41:09;;;;;;;8.90;4.70;;;;;;;0.52;63.67;100445.32;25143;1312;3026837;-73
2022/02/28 02:43:40;;;;;;;8.00;4.80;;;;;;;0.51;63.76;100442.38;25196;1312;3026207;-68
2022/02/28 02:46:10;;;;;;;11.50;5.60;;;;;;;0.46;63.87;100446.04;25225;1312;3026957;-68
2022/02/28 02:48:40;;;;;;;11.00;6.10;;;;;;;0.43;64.09;100444.14;25097;1312;3027080;-70
2022/02/28 02:51:17;;;;;;;7.10;4.60;;;;;;;0.40;64.25;100438.98;25111;1312;3048039;-70
2022/02/28 02:53:48;;;;;;;10.20;4.60;;;;;;;0.34;63.98;100434.34;25133;1312;3026436;-71
2022/02/28 02:56:19;;;;;;;8.60;5.00;;;;;;;0.18;64.08;100433.02;25111;1312;3027031;-69
2022/02/28 02:58:50;;;;;;;8.50;5.10;;;;;;;0.09;64.37;100435.61;25133;1312;3026930;-70
2022/02/28 03:01:21;;;;;;;8.80;4.80;;;;;;;-0.02;64.77;100434.27;25205;1312;3026496;-67
2022/02/28 03:03:51;;;;;;;9.60;5.10;;;;;;;-0.06;64.98;100430.48;25195;1312;3027060;-67
2022/02/28 03:06:20;;;;;;;9.90;5.00;;;;;;;-0.07;65.06;100425.14;25122;1312;3028848;-67
2022/02/28 03:08:51;;;;;;;10.10;4.90;;;;;;;-0.05;64.61;100426.52;25157;1315;3028645;-69
2022/02/28 03:20:08;;;;;;;8.60;4.80;;;;;;;-0.33;65.41;100432.23;25177;1313;3053970;-72
2022/02/28 03:22:48;;;;;;;12.50;5.70;;;;;;;-0.46;65.89;100429.31;25173;1313;3056184;-70
2022/02/28 03:25:18;;;;;;;8.90;4.50;;;;;;;-0.35;65.46;100421.22;25144;1313;3027198;-72
2022/02/28 03:27:54;;;;;;;7.40;5.00;;;;;;;-0.37;65.19;100417.60;25217;1313;3055299;-74
2022/02/28 03:30:25;;;;;;;8.00;4.70;;;;;;;-0.47;65.52;100416.58;25152;1313;3026915;-72
2022/02/28 03:32:55;;;;;;;9.70;5.00;;;;;;;-0.48;65.58;100423.98;25143;1313;3026865;-69
2022/02/28 03:35:23;;;;;;;9.70;5.00;;;;;;;-0.54;65.75;100426.55;23708;1313;8740236;-72
2022/02/28 03:41:36;;;;;;;12.60;5.20;;;;;;;-0.22;64.52;100414.66;25178;1313;3067041;-67
2022/02/28 03:44:09;;;;;;;8.50;4.60;;;;;;;-0.31;64.44;100421.04;25173;1313;3027331;-64
2022/02/28 03:46:44;;;;;;;8.30;4.50;;;;;;;-0.31;64.65;100418.79;25127;1313;3054514;-70
2022/02/28 03:49:17;;;;;;;9.30;4.80;;;;;;;-0.44;65.13;100410.20;25200;1313;3030642;-71
2022/02/28 03:51:57;;;;;;;6.90;4.40;;;;;;;-0.51;65.59;100411.59;25154;1313;3056367;-66
2022/02/28 03:54:36;;;;;;;8.20;4.50;;;;;;;-0.54;65.46;100409.17;25124;1313;3050596;-70
2022/02/28 03:57:06;;;;;;;8.00;4.00;;;;;;;-0.59;65.60;100409.70;25226;1313;3027676;-65
2022/02/28 03:59:36;;;;;;;7.90;4.50;;;;;;;-0.61;65.55;100408.14;25186;1311;3028131;-69
2022/02/28 04:02:07;;;;;;;8.50;4.20;;;;;;;-0.69;65.88;100408.66;25181;1312;3026827;-68
2022/02/28 04:04:43;;;;;;;8.10;5.10;;;;;;;-0.71;65.76;100407.45;25161;1312;3028707;-68
2022/02/28 04:07:19;;;;;;;8.50;4.60;;;;;;;-0.77;66.15;100414.33;25177;1312;3026718;-71
2022/02/28 04:10:26;;;;;;;8.90;4.20;;;;;;;-0.73;65.88;100415.36;25204;1312;3051732;-70
2022/02/28 04:12:57;;;;;;;7.70;4.50;;;;;;;-0.74;65.71;100420.19;25291;1312;3055648;-69
2022/02/28 04:15:27;;;;;;;8.20;4.20;;;;;;;-0.80;65.95;100420.17;25163;1315;3026561;-65
2022/02/28 04:17:57;;;;;;;7.40;4.10;;;;;;;-0.84;66.08;100427.05;25184;1312;3027583;-72
2022/02/28 04:20:34;;;;;;;10.60;4.70;;;;;;;-0.87;66.32;100430.14;25168;1312;3050492;-65
2022/02/28 04:23:04;;;;;;;7.30;4.70;;;;;;;-0.86;66.09;100426.01;25105;1316;3026127;-71
2022/02/28 04:25:34;;;;;;;9.80;4.30;;;;;;;-0.88;66.22;100426.35;25107;1317;3026225;-71
2022/02/28 04:28:05;;;;;;;8.20;4.20;;;;;;;-0.83;66.12;100430.66;25189;1313;3026213;-68
2022/02/28 04:31:05;;;;;;;11.30;4.50;;;;;;;-0.78;65.54;100431.19;25141;1315;3027553;-67
2022/02/28 04:33:51;;;;;;;9.60;4.30;;;;;;;-0.92;66.07;100428.77;25123;1313;3057217;-70
2022/02/28 04:36:21;;;;;;;8.20;4.60;;;;;;;-0.96;66.34;100430.48;25138;1313;3050286;-68
2022/02/28 04:39:00;;;;;;;9.60;5.40;;;;;;;-0.90;65.97;100428.59;25149;1315;3053829;-72
2022/02/28 04:41:38;;;;;;;11.30;5.40;;;;;;;-0.78;65.84;100430.16;25161;1313;3050553;-66
2022/02/28 04:44:53;;;;;;;10.80;5.40;;;;;;;-0.85;65.56;100435.82;25149;1312;3069572;-71
2022/02/28 04:47:26;;;;;;;9.50;5.40;;;;;;;-0.93;65.81;100433.73;25176;1313;3048985;-67
2022/02/28 04:58:14;;;;;;;11.20;5.80;;;;;;;-0.64;65.16;100443.26;31621;1315;3026717;-67
2022/02/28 05:01:38;;;;;;;12.40;6.90;;;;;;;-0.08;63.59;100439.95;25043;1319;3052620;-66
2022/02/28 05:04:57;;;;;;;7.50;4.40;;;;;;;0.02;62.33;100438.73;24851;1324;3051467;-71
2022/02/28 05:07:30;;;;;;;9.50;5.00;;;;;;;-0.19;63.00;100438.77;25112;1315;3030322;-71
2022/02/28 05:13:32;;;;;;;11.50;6.70;;;;;;;0.02;62.71;100433.56;25048;1314;3069460;-66
2022/02/28 05:16:03;;;;;;;11.50;5.20;;;;;;;0.12;61.82;100432.34;25166;1313;3026436;-67
2022/02/28 05:18:33;;;;;;;8.90;4.50;;;;;;;-0.05;61.99;100428.08;25137;1315;3026674;-67
2022/02/28 05:21:03;;;;;;;8.00;4.20;;;;;;;-0.20;62.55;100428.43;25129;1315;3027375;-70
2022/02/28 05:23:38;;;;;;;10.50;5.20;;;;;;;-0.27;62.60;100425.34;25165;1315;3026956;-65
2022/02/28 05:26:07;;;;;;;9.70;5.20;;;;;;;-0.33;62.81;100420.87;25116;1315;3026428;-66
2022/02/28 05:28:37;;;;;;;11.90;5.50;;;;;;;-0.30;62.88;100423.63;25127;1313;3026727;-72
2022/02/28 05:31:39;;;;;;;11.40;5.20;;;;;;;-0.27;62.62;100422.59;25110;1313;3029890;-68
2022/02/28 05:35:24;;;;;;;13.50;5.90;;;;;;;-0.42;62.67;100427.42;25139;1313;3071782;-69
2022/02/28 05:38:14;;;;;;;11.30;6.10;;;;;;;-0.45;62.75;100428.28;25130;1313;3049642;-65
2022/02/28 05:40:46;;;;;;;12.50;6.50;;;;;;;-0.52;63.12;100426.39;25169;1313;3027168;-71
2022/02/28 05:43:19;;;;;;;11.70;5.90;;;;;;;-0.42;62.91;100422.08;25113;1313;3026982;-69
2022/02/28 05:45:48;;;;;;;13.50;6.70;;;;;;;-0.47;63.03;100427.06;25112;1315;3029834;-67
2022/02/28 05:48:45;;;;;;;13.60;6.80;;;;;;;-0.39;63.08;100429.48;25025;1313;3049658;-71
2022/02/28 05:51:17;;;;;;;13.70;7.30;;;;;;;-0.27;62.60;100423.11;25123;1313;3026394;-64
2022/02/28 05:53:47;;;;;;;17.90;7.50;;;;;;;-0.24;62.35;100424.64;25099;1314;3026553;-66
2022/02/28 05:56:17;;;;;;;15.60;7.20;;;;;;;-0.19;62.20;100426.20;25129;1313;3028923;-66
2022/02/28 05:58:48;;;;;;;16.50;7.70;;;;;;;-0.26;62.21;100420.86;25114;1313;3026650;-68
2022/02/28 06:01:20;;;;;;;14.70;6.70;;;;;;;-0.23;62.40;100423.10;25096;1315;3028534;-66
2022/02/28 06:03:51;;;;;;;18.80;8.50;;;;;;;-0.31;62.47;100425.70;25098;1313;3027267;-74
2022/02/28 06:06:23;;;;;;;17.90;7.80;;;;;;;-0.13;62.44;100426.70;25185;1315;3026419;-67
2022/02/28 06:08:52;;;;;;;17.70;7.80;;;;;;;-0.04;61.81;100423.41;25071;1313;3027986;-69
2022/02/28 06:11:23;;;;;;;12.80;6.60;;;;;;;0.00;61.72;100423.41;25093;1315;3026953;-66
2022/02/28 06:13:53;;;;;;;18.00;7.60;;;;;;;0.13;61.46;100422.00;25113;1313;3026649;-73
2022/02/28 06:16:22;;;;;;;13.70;6.90;;;;;;;0.16;61.03;100419.76;25107;1315;3026773;-67
2022/02/28 06:18:52;;;;;;;16.70;7.30;;;;;;;0.19;61.12;100431.11;25100;1315;3028618;-67
2022/02/28 06:21:28;;;;;;;14.30;7.10;;;;;;;0.33;61.10;100434.17;25126;1314;3054951;-65
2022/02/28 06:23:59;;;;;;;17.80;7.50;;;;;;;0.32;61.01;100431.42;25109;1312;3027986;-69
2022/02/28 06:26:29;;;;;;;16.50;7.60;;;;;;;0.38;60.81;100433.48;25140;1313;3026125;-67
2022/02/28 06:28:58;;;;;;;13.50;7.20;;;;;;;0.42;60.51;100434.14;25094;1313;3029342;-71
2022/02/28 06:31:30;;;;;;;14.90;6.90;;;;;;;0.46;60.59;100434.13;25129;1314;3027448;-71
2022/02/28 06:34:03;;;;;;;19.70;8.00;;;;;;;0.47;60.66;100437.40;25132;1313;3059297;-67
2022/02/28 06:36:33;;;;;;;14.70;6.80;;;;;;;0.59;60.37;100436.66;25122;1315;3026736;-65
2022/02/28 06:39:03;;;;;;;12.60;6.60;;;;;;;0.63;60.03;100436.66;25126;1312;3026153;-67
2022/02/28 06:41:33;;;;;;;15.20;7.00;;;;;;;0.58;60.04;100432.70;25149;1313;3028534;-71
2022/02/28 06:44:02;;;;;;;12.80;5.80;;;;;;;0.71;60.00;100434.55;25107;1314;3028058;-70
2022/02/28 06:46:35;;;;;;;13.70;6.10;;;;;;;0.80;59.57;100435.02;25114;1313;3028879;-68
2022/02/28 06:49:04;;;;;;;14.20;6.50;;;;;;;0.94;59.56;100435.11;25111;1313;3026885;-64
2022/02/28 06:51:34;;;;;;;14.20;6.30;;;;;;;1.08;58.96;100431.58;25108;1315;3028464;-73
2022/02/28 06:54:04;;;;;;;15.80;6.70;;;;;;;1.09;58.90;100428.98;25130;1315;3027284;-69
2022/02/28 06:56:34;;;;;;;11.70;5.90;;;;;;;1.23;58.29;100424.77;25129;1313;3026928;-71
2022/02/28 06:59:03;;;;;;;14.30;5.50;;;;;;;1.23;58.11;100421.64;25144;1315;3026194;-68
2022/02/28 07:01:39;;;;;;;11.80;6.10;;;;;;;1.26;58.18;100423.17;25132;1313;3051611;-66
2022/02/28 07:04:28;;;;;;;16.90;5.20;;;;;;;1.28;58.07;100424.38;25133;1313;3071476;-68
2022/02/28 07:06:57;;;;;;;10.50;5.70;;;;;;;1.32;58.00;100420.54;25117;1315;3026218;-69
2022/02/28 07:09:27;;;;;;;10.00;5.20;;;;;;;1.29;57.70;100420.40;25125;1313;3027022;-71
2022/02/28 07:12:00;;;;;;;12.70;5.10;;;;;;;1.38;58.10;100415.85;25104;1315;3026695;-68
2022/02/28 07:14:29;;;;;;;10.70;5.60;;;;;;;1.36;57.84;100415.86;25141;1315;3026013;-68
2022/02/28 07:16:59;;;;;;;11.20;6.10;;;;;;;1.43;57.85;100417.71;25118;1313;3028356;-71
2022/02/28 07:19:28;;;;;;;10.80;5.30;;;;;;;1.46;57.84;100418.19;25133;1313;3028800;-65
2022/02/28 07:21:58;;;;;;;15.20;6.60;;;;;;;1.47;57.60;100421.30;25139;1313;3026077;-67
2022/02/28 07:24:27;;;;;;;13.20;5.90;;;;;;;1.48;57.71;100412.99;25213;1313;3028801;-69
2022/02/28 07:26:56;;;;;;;12.00;6.20;;;;;;;1.53;57.70;100411.23;25162;1313;3027020;-69
2022/02/28 07:29:27;;;;;;;9.30;5.80;;;;;;;1.60;57.11;100409.95;25192;1313;3026561;-66
2022/02/28 07:31:59;;;;;;;13.60;7.10;;;;;;;1.77;57.22;100410.49;25160;1313;3026731;-65
2022/02/28 07:34:29;;;;;;;10.10;5.70;;;;;;;1.67;57.04;100407.65;25125;1313;3027183;-68
2022/02/28 07:36:58;;;;;;;11.00;5.30;;;;;;;1.92;57.10;100411.04;25115;1315;3026722;-64
2022/02/28 07:39:28;;;;;;;10.80;6.00;;;;;;;2.07;56.42;100408.14;25123;1315;3026846;-71
2022/02/28 07:42:00;;;;;;;14.40;5.70;;;;;;;2.21;56.07;100409.54;25127;1315;3026486;-71
2022/02/28 07:44:30;;;;;;;14.20;6.40;;;;;;;2.30;55.56;100405.11;25114;1315;3027174;-67
2022/02/28 07:47:00;;;;;;;12.30;5.80;;;;;;;2.20;55.65;100403.48;25124;1313;3028941;-63
2022/02/28 07:49:35;;;;;;;11.00;6.40;;;;;;;2.37;55.63;100397.94;25155;1313;3029901;-67
2022/02/28 07:52:05;;;;;;;12.30;5.40;;;;;;;2.53;55.58;100398.44;25179;1313;3051039;-70
2022/02/28 07:54:35;;;;;;;11.80;6.00;;;;;;;2.70;55.24;100396.13;25158;1315;3026423;-70
2022/02/28 07:57:05;;;;;;;10.80;5.70;;;;;;;2.63;54.57;100385.67;25107;1313;3027131;-68
2022/02/28 07:59:35;;;;;;;14.10;4.90;;;;;;;2.75;55.21;100384.14;25157;1316;3026634;-66
2022/02/28 08:02:05;;;;;;;10.30;5.00;;;;;;;2.79;54.35;100384.94;25179;1315;3026362;-67
2022/02/28 08:04:34;;;;;;;12.80;5.70;;;;;;;2.72;54.18;100381.92;25131;1315;3026455;-65
2022/02/28 08:07:05;;;;;;;11.00;5.70;;;;;;;2.61;54.69;100378.95;25172;1315;3030096;-65
2022/02/28 08:09:35;;;;;;;10.80;5.10;;;;;;;2.57;55.00;100374.86;25162;1313;3026283;-66
2022/02/28 08:12:04;;;;;;;8.70;4.80;;;;;;;2.77;54.69;100372.67;25144;1318;3027222;-69
2022/02/28 08:14:50;;;;;;;11.70;5.00;;;;;;;2.97;54.19;100371.00;25182;1315;3026580;-68
2022/02/28 08:17:20;;;;;;;9.80;4.00;;;;;;;3.19;53.24;100374.48;25118;1313;3051849;-68
2022/02/28 08:20:20;;;;;;;11.00;5.00;;;;;;;3.04;53.51;100372.98;25135;1313;3026382;-72
2022/02/28 08:22:50;;;;;;;10.60;5.30;;;;;;;2.91;53.79;100370.58;25154;1315;3050973;-73
2022/02/28 08:25:33;;;;;;;11.70;5.30;;;;;;;3.11;53.75;100376.52;25152;1313;3027066;-73
2022/02/28 08:28:04;;;;;;;8.20;4.80;;;;;;;3.32;53.36;100373.94;25143;1315;3052978;-69
2022/02/28 08:31:04;;;;;;;8.70;4.90;;;;;;;3.50;52.70;100376.77;25084;1315;3054770;-64
2022/02/28 08:34:19;;;;;;;8.20;4.50;;;;;;;3.69;52.26;100372.27;25149;1317;3051954;-66
2022/02/28 08:37:18;;;;;;;9.50;5.00;;;;;;;3.75;51.86;100370.44;25115;1315;3027676;-68
2022/02/28 08:40:06;;;;;;;9.80;4.40;;;;;;;3.76;52.05;100375.10;25164;1315;3048455;-69
2022/02/28 08:42:36;;;;;;;6.50;4.10;;;;;;;3.66;51.96;100375.27;25102;1313;3054397;-73
2022/02/28 08:45:11;;;;;;;7.10;4.10;;;;;;;3.60;51.84;100373.29;25178;1313;3050670;-66
2022/02/28 08:47:44;;;;;;;10.90;5.10;;;;;;;3.48;52.39;100379.04;25134;1315;3028057;-70
2022/02/28 08:50:36;;;;;;;8.90;4.70;;;;;;;3.47;52.49;100378.01;25124;1314;3049651;-67
2022/02/28 08:53:06;;;;;;;8.30;5.30;;;;;;;3.38;52.92;100381.98;25127;1315;3026473;-65
2022/02/28 08:55:39;;;;;;;7.90;4.70;;;;;;;3.37;52.77;100377.49;25164;1315;3053746;-67
2022/02/28 08:58:11;;;;;;;6.10;3.80;;;;;;;3.32;52.76;100371.51;25088;1315;3026858;-73
2022/02/28 09:00:42;;;;;;;6.40;3.80;;;;;;;3.46;52.42;100374.56;25099;1313;3028499;-65
2022/02/28 09:03:12;;;;;;;6.40;3.90;;;;;;;3.51;52.36;100375.35;25118;1315;3026526;-67
2022/02/28 09:05:47;;;;;;;10.90;4.30;;;;;;;3.58;52.39;100380.61;25121;1315;3027168;-69
2022/02/28 09:08:16;;;;;;;9.80;4.90;;;;;;;3.61;52.53;100381.41;25048;1317;3028976;-73
2022/02/28 09:10:46;;;;;;;7.70;4.50;;;;;;;3.65;52.33;100378.04;25158;1315;3029245;-71
2022/02/28 09:13:21;;;;;;;9.20;5.00;;;;;;;3.57;52.64;100378.55;25087;1315;3054547;-68
2022/02/28 09:15:51;;;;;;;9.40;4.90;;;;;;;3.76;52.67;100375.61;25119;1314;3026585;-69
2022/02/28 09:18:23;;;;;;;9.70;5.20;;;;;;;3.70;52.51;100376.59;25121;1315;3026405;-69
2022/02/28 09:20:55;;;;;;;9.10;4.70;;;;;;;3.51;52.82;100372.41;25035;1315;3027511;-68
2022/02/28 09:23:25;;;;;;;15.20;4.80;;;;;;;3.51;52.98;100364.78;25118;1313;3026279;-72
2022/02/28 09:25:55;;;;;;;7.60;4.40;;;;;;;3.51;52.94;100365.82;25089;1313;3026723;-65
2022/02/28 09:28:25;;;;;;;7.70;4.20;;;;;;;3.56;52.58;100367.98;25090;1315;3027289;-71
2022/02/28 09:30:55;;;;;;;7.70;4.40;;;;;;;3.53;53.16;100362.66;25126;1313;3030035;-70
2022/02/28 09:33:28;;;;;;;8.40;4.90;;;;;;;3.55;52.90;100365.07;25059;1315;3029358;-70
2022/02/28 09:36:04;;;;;;;8.80;4.80;;;;;;;3.54;53.31;100362.14;25130;1315;3051902;-71
2022/02/28 09:38:34;;;;;;;9.90;4.90;;;;;;;3.55;53.11;100361.77;25125;1313;3026549;-65
2022/02/28 09:41:04;;;;;;;7.80;3.90;;;;;;;3.61;52.80;100360.98;25108;1314;3026520;-69
2022/02/28 09:43:47;;;;;;;6.20;3.90;;;;;;;3.67;52.70;100361.73;25108;1313;3052399;-68
2022/02/28 09:46:40;;;;;;;10.30;4.70;;;;;;;3.53;52.79;100360.08;25036;1315;3055333;-66
2022/02/28 09:49:12;;;;;;;9.10;5.30;;;;;;;3.44;53.54;100358.34;25113;1315;3028350;-68
2022/02/28 09:52:00;;;;;;;6.00;3.80;;;;;;;3.44;53.02;100361.61;25106;1315;3049349;-67
2022/02/28 09:54:49;;;;;;;6.10;4.10;;;;;;;3.56;53.17;100357.94;25130;1313;3054920;-69
2022/02/28 09:57:36;;;;;;;10.20;4.80;;;;;;;3.56;53.09;100357.77;25101;1314;3055100;-67
2022/02/28 10:00:25;;;;;;;9.40;4.70;;;;;;;3.25;54.03;100360.89;25070;1314;3056923;-64
2022/02/28 10:02:58;;;;;;;8.90;4.40;;;;;;;3.41;53.88;100366.68;25034;1315;3048297;-67
2022/02/28 10:05:28;;;;;;;13.10;4.60;;;;;;;3.53;53.20;100365.45;25006;1317;3053396;-69
2022/02/28 10:08:00;;;;;;;13.00;4.50;;;;;;;3.37;53.02;100365.36;25150;1314;3026704;-65
2022/02/28 10:10:31;;;;;;;8.90;4.60;;;;;;;3.33;53.46;100366.64;25001;1314;3071074;-67
2022/02/28 10:13:00;;;;;;;8.90;4.80;;;;;;;3.20;53.88;100369.80;25015;1315;3027034;-70
2022/02/28 10:15:29;;;;;;;12.70;4.50;;;;;;;3.23;54.02;100370.80;25033;1316;3026474;-69
2022/02/28 10:18:01;;;;;;;8.90;4.50;;;;;;;3.40;53.59;100369.64;25011;1317;3027444;-65
2022/02/28 10:20:35;;;;;;;8.30;4.10;;;;;;;3.21;53.66;100368.21;25036;1314;3026531;-64
2022/02/28 10:23:09;;;;;;;8.60;4.70;;;;;;;3.39;53.16;100366.02;25043;1314;3048593;-64
2022/02/28 10:25:53;;;;;;;6.70;3.90;;;;;;;3.26;53.37;100365.03;25053;1317;3055379;-71
2022/02/28 10:28:40;;;;;;;7.00;4.10;;;;;;;3.20;53.30;100361.83;25012;1314;3051561;-68
2022/02/28 10:31:38;;;;;;;8.40;3.90;;;;;;;3.33;53.20;100364.39;25052;1314;3070155;-62
2022/02/28 10:34:27;;;;;;;9.70;4.30;;;;;;;2.98;53.81;100366.66;25072;1315;3051701;-68
2022/02/28 10:37:15;;;;;;;8.60;4.60;;;;;;;3.15;53.82;100362.95;25063;1314;3054426;-67
2022/02/28 10:39:44;;;;;;;8.70;4.30;;;;;;;3.11;53.79;100361.46;25073;1317;3026928;-68
2022/02/28 10:42:15;;;;;;;8.60;4.70;;;;;;;3.02;54.17;100355.88;25102;1317;3049174;-70
2022/02/28 10:44:45;;;;;;;12.40;4.90;;;;;;;2.93;54.15;100357.56;25035;1315;3026555;-69
2022/02/28 10:47:14;;;;;;;7.20;4.40;;;;;;;2.95;54.14;100358.23;25088;1315;3026557;-69
2022/02/28 10:49:43;;;;;;;6.30;4.20;;;;;;;3.06;53.67;100353.73;25079;1314;3048286;-64
2022/02/28 10:52:13;;;;;;;10.90;5.10;;;;;;;3.13;53.34;100355.17;25035;1314;3027558;-63
2022/02/28 10:54:45;;;;;;;9.70;5.30;;;;;;;3.17;53.41;100350.95;25103;1314;3028937;-71
2022/02/28 10:57:19;;;;;;;8.50;4.20;;;;;;;3.12;53.47;100347.94;25063;1315;3050442;-69
2022/02/28 10:59:52;;;;;;;5.10;3.60;;;;;;;3.24;53.41;100347.23;25063;1315;3052513;-64
2022/02/28 11:02:32;;;;;;;4.70;3.20;;;;;;;3.22;53.37;100344.81;25112;1315;3026574;-68
2022/02/28 11:05:13;;;;;;;5.00;3.60;;;;;;;3.14;53.30;100346.53;25113;1315;3058905;-63
2022/02/28 11:07:45;;;;;;;7.00;4.20;;;;;;;3.16;53.53;100339.04;25084;1315;3050310;-70
2022/02/28 11:10:18;;;;;;;7.60;4.00;;;;;;;3.04;53.89;100342.86;25077;1315;3028189;-69
2022/02/28 11:12:49;;;;;;;;;;;;;;;3.18;53.55;100335.02;25051;1314;3051567;-68
2022/02/28 11:15:21;;;;;;;7.90;4.30;;;;;;;3.00;53.79;100335.30;25099;1315;3026662;-65
2022/02/28 11:17:52;;;;;;;9.10;4.20;;;;;;;2.83;54.41;100333.13;25110;1315;3028617;-68
2022/02/28 11:20:22;;;;;;;7.20;4.40;;;;;;;2.64;55.22;100329.98;25115;1314;3027133;-69
2022/02/28 11:22:51;;;;;;;8.20;4.30;;;;;;;2.80;54.99;100338.21;25077;1314;3027921;-66
2022/02/28 11:25:22;;;;;;;10.90;4.60;;;;;;;2.86;54.65;100335.52;25079;1315;3051164;-66
2022/02/28 11:27:51;;;;;;;11.70;4.60;;;;;;;2.77;55.02;100332.88;25061;1315;3027021;-65
2022/02/28 11:30:23;;;;;;;9.20;4.00;;;;;;;2.80;54.93;100330.77;25076;1315;3071254;-66
2022/02/28 11:32:57;;;;;;;5.60;3.10;;;;;;;2.70;55.09;100338.35;25104;1315;3029949;-65
2022/02/28 11:35:38;;;;;;;6.90;3.70;;;;;;;2.87;54.89;100332.05;25078;1313;3053929;-69
2022/02/28 11:38:15;;;;;;;5.30;3.40;;;;;;;2.94;54.79;100333.16;25127;1314;3051612;-67
2022/02/28 11:40:53;;;;;;;5.70;3.90;;;;;;;2.91;54.87;100333.73;25119;1313;3057525;-66
2022/02/28 11:43:25;;;;;;;6.60;3.90;;;;;;;2.82;55.24;100327.45;25093;1315;3049958;-65
2022/02/28 11:46:00;;;;;;;8.70;4.30;;;;;;;2.85;55.21;100323.77;25053;1315;3027111;-64
2022/02/28 11:48:40;;;;;;;8.50;4.50;;;;;;;2.79;55.36;100318.85;25059;1318;3052346;-62
2022/02/28 11:51:27;;;;;;;7.20;4.20;;;;;;;2.78;55.37;100320.92;25079;1315;3071077;-66
2022/02/28 11:54:01;;;;;;;8.00;4.20;;;;;;;2.62;55.77;100323.77;25051;1315;3050229;-67
2022/02/28 11:56:36;;;;;;;9.60;3.80;;;;;;;2.71;55.58;100315.34;25054;1315;3053597;-62
2022/02/28 11:59:20;;;;;;;8.20;4.70;;;;;;;2.52;56.01;100316.30;25103;1315;3054399;-68
2022/02/28 12:02:07;;;;;;;8.20;3.90;;;;;;;2.43;56.53;100317.46;25123;1315;3056105;-68
2022/02/28 12:04:41;;;;;;;6.90;4.00;;;;;;;2.33;56.58;100316.55;25102;1313;3049826;-68
2022/02/28 12:07:25;;;;;;;7.60;4.60;;;;;;;2.46;56.76;100319.14;25101;1315;3053461;-66
2022/02/28 12:10:05;;;;;;;6.70;3.80;;;;;;;2.40;56.66;100314.91;25045;1315;3052700;-72
2022/02/28 12:12:36;;;;;;;7.30;4.50;;;;;;;2.43;56.41;100313.82;25052;1315;3071663;-72
2022/02/28 12:15:07;;;;;;;8.20;4.20;;;;;;;2.31;57.00;100314.50;25006;1315;3026439;-67
2022/02/28 12:17:37;;;;;;;8.70;4.80;;;;;;;2.25;57.32;100315.09;25095;1313;3026434;-69
2022/02/28 12:20:12;;;;;;;9.30;4.00;;;;;;;2.27;57.20;100309.38;25081;1315;3070155;-68
2022/02/28 12:23:08;;;;;;;11.10;4.00;;;;;;;2.47;56.74;100311.86;25103;1317;3047116;-68
2022/02/28 12:25:53;;;;;;;11.20;4.50;;;;;;;2.53;56.51;100316.46;25146;1315;3052347;-65
2022/02/28 12:28:34;;;;;;;6.90;4.10;;;;;;;2.44;56.90;100312.25;25094;1315;3051780;-68
2022/02/28 12:31:09;;;;;;;7.70;4.00;;;;;;;2.51;56.80;100309.73;25223;1314;3059224;-63
2022/02/28 12:33:39;;;;;;;9.90;4.60;;;;;;;2.51;56.84;100316.64;25492;1315;3052346;-64
2022/02/28 12:36:12;;;;;;;6.10;4.00;;;;;;;2.47;56.92;100312.39;25435;1314;3025802;-64
2022/02/28 12:38:54;;;;;;;10.10;4.30;;;;;;;2.41;57.07;100313.14;25530;1315;3056621;-61
2022/02/28 12:41:33;;;;;;;7.00;3.70;;;;;;;2.35;57.58;100313.93;25159;1315;3050664;-64
2022/02/28 12:44:05;;;;;;;5.90;3.70;;;;;;;2.37;57.22;100312.52;25088;1314;3053299;-65
2022/02/28 12:46:42;;;;;;;5.90;3.60;;;;;;;2.41;56.86;100310.55;25094;1315;3027363;-69
2022/02/28 12:49:12;;;;;;;5.90;3.60;;;;;;;2.40;56.71;100318.71;25130;1315;3071027;-66
2022/02/28 12:51:42;;;;;;;8.90;3.90;;;;;;;2.32;56.93;100321.23;25143;1315;3026114;-62
2022/02/28 12:54:14;;;;;;;6.70;4.20;;;;;;;2.22;57.24;100320.67;25101;1315;3027222;-63
2022/02/28 12:56:55;;;;;;;9.30;4.20;;;;;;;2.06;57.74;100321.39;25100;1315;3026493;-68
2022/02/28 12:59:36;;;;;;;4.70;3.20;;;;;;;2.09;57.82;100316.70;25099;1314;3059350;-65